createdAt,value
2023-03-06T00:01:08.921Z,4.80
2023-03-06T00:03:36.544Z,4.70
2023-03-06T00:06:04.161Z,4.70
2023-03-06T00:08:31.855Z,4.70
2023-03-06T00:10:59.799Z,4.70
2023-03-06T00:13:30.089Z,4.70
2023-03-06T00:16:01.087Z,4.70
2023-03-06T00:18:28.627Z,4.70
2023-03-06T00:20:56.224Z,4.70
2023-03-06T00:23:23.824Z,4.70
2023-03-06T00:25:51.358Z,4.70
2023-03-06T00:28:18.917Z,4.80
2023-03-06T00:30:47.542Z,4.80
2023-03-06T00:33:15.142Z,4.80
2023-03-06T00:35:42.928Z,4.80
2023-03-06T00:38:13.583Z,4.80
2023-03-06T00:40:41.326Z,4.80
2023-03-06T00:43:08.767Z,4.70
2023-03-06T00:45:36.613Z,4.70
2023-03-06T00:48:04.869Z,4.70
2023-03-06T00:50:32.586Z,4.80
2023-03-06T00:52:59.863Z,4.80
2023-03-06T00:55:27.504Z,4.70
2023-03-06T00:57:55.065Z,4.80
2023-03-06T01:00:22.725Z,4.70
2023-03-06T01:02:50.318Z,4.70
2023-03-06T01:05:18.022Z,4.60
2023-03-06T01:07:45.716Z,4.70
2023-03-06T01:10:13.471Z,4.70
2023-03-06T01:12:41.113Z,4.70
2023-03-06T01:15:10.665Z,4.70
2023-03-06T01:17:38.109Z,4.70
2023-03-06T01:20:06.788Z,4.80
2023-03-06T01:22:34.519Z,4.80
2023-03-06T01:25:02.108Z,4.80
2023-03-06T01:27:29.717Z,4.90
2023-03-06T01:29:57.319Z,4.90
2023-03-06T01:32:24.828Z,4.80
2023-03-06T01:34:52.155Z,4.80
2023-03-06T01:37:19.598Z,4.70
2023-03-06T01:39:46.863Z,4.60
2023-03-06T01:42:14.269Z,4.60
2023-03-06T01:45:03.074Z,4.50
2023-03-06T01:47:30.780Z,4.50
2023-03-06T01:50:00.102Z,4.50
2023-03-06T01:52:36.211Z,4.40
2023-03-06T01:55:17.370Z,4.40
2023-03-06T01:57:48.727Z,4.40
2023-03-06T02:00:23.465Z,4.40
2023-03-06T02:02:55.096Z,4.40
2023-03-06T02:05:23.043Z,4.40
2023-03-06T02:07:51.615Z,4.40
2023-03-06T02:10:20.169Z,4.40
2023-03-06T02:12:49.273Z,4.30
2023-03-06T02:15:19.946Z,4.30
2023-03-06T02:17:50.059Z,4.30
2023-03-06T02:20:28.987Z,4.30
2023-03-06T02:23:08.421Z,4.20
2023-03-06T02:25:43.329Z,4.20
2023-03-06T02:28:13.768Z,4.10
2023-03-06T02:30:42.908Z,4.10
2023-03-06T02:33:19.513Z,4.10
2023-03-06T02:35:52.754Z,4.00
2023-03-06T02:38:24.014Z,4.00
2023-03-06T02:40:52.977Z,4.00
2023-03-06T02:43:28.042Z,4.00
2023-03-06T02:45:55.893Z,4.00
2023-03-06T02:48:23.319Z,4.00
2023-03-06T02:50:50.883Z,4.00
2023-03-06T02:53:20.171Z,3.90
2023-03-06T02:55:48.170Z,3.90
2023-03-06T02:58:15.858Z,3.90
2023-03-06T03:00:43.310Z,3.90
2023-03-06T03:03:11.121Z,3.90
2023-03-06T03:05:38.469Z,3.80
2023-03-06T03:08:06.208Z,3.80
2023-03-06T03:10:33.864Z,3.80
2023-03-06T03:13:01.316Z,3.80
2023-03-06T03:15:28.829Z,3.80
2023-03-06T03:17:56.303Z,3.80
2023-03-06T03:20:24.160Z,3.70
2023-03-06T03:22:54.057Z,3.70
2023-03-06T03:25:23.430Z,3.70
2023-03-06T03:27:51.402Z,3.70
2023-03-06T03:30:19.078Z,3.70
2023-03-06T03:32:46.558Z,3.70
2023-03-06T03:35:14.153Z,3.70
2023-03-06T03:37:41.711Z,3.70
2023-03-06T03:40:10.286Z,3.70
2023-03-06T03:42:37.976Z,3.60
2023-03-06T03:45:05.707Z,3.60
2023-03-06T03:47:33.165Z,3.60
2023-03-06T03:50:00.722Z,3.50
2023-03-06T03:52:28.339Z,3.50
2023-03-06T03:54:56.051Z,3.50
2023-03-06T03:57:23.415Z,3.50
2023-03-06T03:59:50.755Z,3.50
2023-03-06T04:02:18.490Z,3.50
2023-03-06T04:04:46.055Z,3.50
2023-03-06T04:07:13.811Z,3.50
2023-03-06T04:09:41.566Z,3.50
2023-03-06T04:12:09.053Z,3.50
2023-03-06T04:14:36.659Z,3.50
2023-03-06T04:17:04.051Z,3.50
2023-03-06T04:19:31.454Z,3.50
2023-03-06T04:21:58.958Z,3.50
2023-03-06T04:24:26.517Z,3.60
2023-03-06T04:26:54.074Z,3.60
2023-03-06T04:29:21.360Z,3.50
2023-03-06T04:31:48.760Z,3.50
2023-03-06T04:34:16.402Z,3.50
2023-03-06T04:36:46.714Z,3.50
2023-03-06T04:39:14.915Z,3.40
2023-03-06T04:41:42.539Z,3.40
2023-03-06T04:44:10.063Z,3.50
2023-03-06T04:46:37.708Z,3.40
2023-03-06T04:49:05.168Z,3.40
2023-03-06T04:51:32.557Z,3.40
2023-03-06T04:54:00.072Z,3.40
2023-03-06T04:56:27.359Z,3.40
2023-03-06T04:58:54.633Z,3.40
2023-03-06T05:01:22.321Z,3.40
2023-03-06T05:03:50.068Z,3.40
2023-03-06T05:06:17.704Z,3.40
2023-03-06T05:08:45.028Z,3.30
2023-03-06T05:11:12.352Z,3.30
2023-03-06T05:13:39.858Z,3.30
2023-03-06T05:16:08.159Z,3.30
2023-03-06T05:18:35.898Z,3.30
2023-03-06T05:21:04.402Z,3.40
2023-03-06T05:23:33.944Z,3.30
2023-03-06T05:26:01.454Z,3.30
2023-03-06T05:28:28.963Z,3.40
2023-03-06T05:30:56.361Z,3.40
2023-03-06T05:33:23.845Z,3.40
2023-03-06T05:35:51.367Z,3.40
2023-03-06T05:38:18.962Z,3.40
2023-03-06T05:40:46.656Z,3.40
2023-03-06T05:43:13.954Z,3.40
2023-03-06T05:45:41.401Z,3.40
2023-03-06T05:48:10.858Z,3.30
2023-03-06T05:50:39.007Z,3.40
2023-03-06T05:53:06.563Z,3.40
2023-03-06T05:55:33.903Z,3.40
2023-03-06T05:58:01.264Z,3.40
2023-03-06T06:00:28.894Z,3.30
2023-03-06T06:02:56.091Z,3.30
2023-03-06T06:05:23.406Z,3.30
2023-03-06T06:07:50.996Z,3.30
2023-03-06T06:10:18.651Z,3.40
2023-03-06T06:12:46.196Z,3.50
2023-03-06T06:15:15.418Z,3.50
2023-03-06T06:17:42.804Z,3.60
2023-03-06T06:20:10.952Z,3.60
2023-03-06T06:22:38.501Z,3.60
2023-03-06T06:25:08.113Z,3.60
2023-03-06T06:27:35.418Z,3.60
2023-03-06T06:30:05.563Z,3.60
2023-03-06T06:32:33.181Z,3.60
2023-03-06T06:35:00.583Z,3.60
2023-03-06T06:37:27.952Z,3.70
2023-03-06T06:39:55.506Z,3.80
2023-03-06T06:42:35.807Z,3.70
2023-03-06T06:45:06.014Z,3.60
2023-03-06T06:47:34.415Z,3.60
2023-03-06T06:50:02.137Z,3.70
2023-03-06T06:52:29.756Z,3.70
2023-03-06T06:54:57.112Z,3.60
2023-03-06T06:57:24.647Z,3.70
2023-03-06T06:59:53.951Z,3.70
2023-03-06T07:02:21.737Z,3.80
2023-03-06T07:05:02.363Z,3.70
2023-03-06T07:07:34.431Z,3.70
2023-03-06T07:10:03.354Z,3.70
2023-03-06T07:12:32.897Z,3.70
2023-03-06T07:15:00.406Z,3.70
2023-03-06T07:17:27.710Z,3.70
2023-03-06T07:19:55.224Z,3.80
2023-03-06T07:22:22.908Z,3.70
2023-03-06T07:24:50.193Z,3.70
2023-03-06T07:27:17.803Z,3.70
2023-03-06T07:29:45.413Z,3.70
2023-03-06T07:32:13.048Z,3.70
2023-03-06T07:34:40.367Z,3.80
2023-03-06T07:37:07.754Z,3.80
2023-03-06T07:39:35.347Z,3.80
2023-03-06T07:42:02.851Z,3.70
2023-03-06T07:44:30.318Z,3.80
2023-03-06T07:46:57.949Z,3.80
2023-03-06T07:49:25.258Z,3.80
2023-03-06T07:51:52.609Z,3.80
2023-03-06T07:54:20.149Z,3.80
2023-03-06T07:56:51.104Z,3.90
2023-03-06T07:59:18.765Z,4.00
2023-03-06T08:01:46.712Z,4.00
2023-03-06T08:04:14.161Z,3.90
2023-03-06T08:06:41.513Z,4.00
2023-03-06T08:09:09.108Z,3.90
2023-03-06T08:11:36.639Z,4.10
2023-03-06T08:14:04.147Z,4.20
2023-03-06T08:16:31.932Z,4.20
2023-03-06T08:18:59.761Z,4.20
2023-03-06T08:21:28.463Z,4.30
2023-03-06T08:23:56.651Z,4.30
2023-03-06T08:26:26.811Z,4.40
2023-03-06T08:28:56.145Z,4.40
2023-03-06T08:31:31.735Z,4.50
2023-03-06T08:34:02.422Z,4.50
2023-03-06T08:36:30.436Z,4.60
2023-03-06T08:38:58.571Z,4.60
2023-03-06T08:41:26.402Z,4.60
2023-03-06T08:43:54.554Z,4.70
2023-03-06T08:46:24.292Z,4.70
2023-03-06T08:48:51.950Z,4.70
2023-03-06T08:51:20.931Z,4.70
2023-03-06T08:53:48.749Z,4.80
2023-03-06T08:56:25.998Z,4.80
2023-03-06T08:58:54.300Z,4.90
2023-03-06T09:01:24.738Z,4.90
2023-03-06T09:03:55.065Z,4.90
2023-03-06T09:06:22.823Z,4.90
2023-03-06T09:08:53.842Z,4.90
2023-03-06T09:11:23.448Z,5.00
2023-03-06T09:13:50.969Z,5.00
2023-03-06T09:16:18.426Z,5.10
2023-03-06T09:18:46.131Z,5.10
2023-03-06T09:21:13.648Z,5.20
2023-03-06T09:23:41.255Z,5.20
2023-03-06T09:26:09.019Z,5.30
2023-03-06T09:28:40.172Z,5.40
2023-03-06T09:31:14.352Z,5.40
2023-03-06T09:33:42.615Z,5.40
2023-03-06T09:36:18.660Z,5.50
2023-03-06T09:38:48.337Z,5.70
2023-03-06T09:41:27.911Z,5.90
2023-03-06T09:44:14.424Z,6.00
2023-03-06T09:47:07.091Z,6.10
2023-03-06T09:49:34.509Z,6.10
2023-03-06T09:52:23.111Z,6.10
2023-03-06T09:54:58.118Z,6.10
2023-03-06T09:57:32.178Z,6.20
2023-03-06T10:00:08.860Z,6.30
2023-03-06T10:02:42.367Z,6.40
2023-03-06T10:05:19.875Z,6.50
2023-03-06T10:08:06.258Z,6.50
2023-03-06T10:10:51.742Z,6.70
2023-03-06T10:13:39.441Z,6.70
2023-03-06T10:16:18.601Z,6.80
2023-03-06T10:18:46.542Z,6.90
2023-03-06T10:21:52.567Z,7.00
2023-03-06T10:24:28.992Z,7.10
2023-03-06T10:27:23.511Z,7.10
2023-03-06T10:30:12.393Z,7.20
2023-03-06T10:33:18.890Z,7.10
2023-03-06T10:35:55.078Z,7.10
2023-03-06T10:38:26.239Z,7.20
2023-03-06T10:41:29.018Z,7.30
2023-03-06T10:44:05.449Z,7.30
2023-03-06T10:46:36.415Z,7.30
2023-03-06T10:49:27.391Z,7.40
2023-03-06T10:52:01.179Z,7.30
2023-03-06T10:54:31.593Z,7.30
2023-03-06T10:57:17.065Z,7.30
2023-03-06T10:59:58.254Z,7.40
2023-03-06T11:02:28.557Z,7.50
2023-03-06T11:04:58.517Z,7.50
2023-03-06T11:07:28.704Z,7.50
2023-03-06T11:10:18.149Z,7.60
2023-03-06T11:12:58.122Z,7.60
2023-03-06T11:15:27.661Z,7.70
2023-03-06T11:18:20.905Z,7.80
2023-03-06T11:20:54.401Z,7.90
2023-03-06T11:23:44.606Z,8.00
2023-03-06T11:26:18.150Z,8.10
2023-03-06T11:29:07.113Z,8.20
2023-03-06T11:31:48.499Z,8.20
2023-03-06T11:34:27.444Z,8.30
2023-03-06T11:37:01.303Z,8.30
2023-03-06T11:39:43.345Z,8.30
2023-03-06T11:42:32.588Z,8.30
2023-03-06T11:45:24.487Z,8.40
2023-03-06T11:48:01.817Z,8.40
2023-03-06T11:50:35.680Z,8.40
2023-03-06T11:53:10.728Z,8.50
2023-03-06T11:55:44.233Z,8.50
2023-03-06T11:58:36.847Z,8.60
2023-03-06T12:01:17.239Z,8.70
2023-03-06T12:03:51.019Z,8.70
2023-03-06T12:06:24.392Z,8.90
2023-03-06T12:09:32.757Z,9.10
2023-03-06T12:12:24.645Z,9.10
2023-03-06T12:15:01.304Z,9.20
2023-03-06T12:17:43.770Z,9.30
2023-03-06T12:20:38.979Z,9.30
2023-03-06T12:23:22.077Z,9.20
2023-03-06T12:26:09.798Z,9.10
2023-03-06T12:29:13.849Z,9.00
2023-03-06T12:32:17.070Z,9.00
2023-03-06T12:35:06.286Z,9.20
2023-03-06T12:37:48.213Z,9.20
2023-03-06T12:40:37.593Z,9.20
2023-03-06T12:43:46.947Z,9.20
2023-03-06T12:46:17.481Z,9.10
2023-03-06T12:48:49.191Z,9.20
2023-03-06T12:51:20.448Z,9.20
2023-03-06T12:53:49.943Z,9.20
2023-03-06T12:56:19.098Z,9.20
2023-03-06T12:58:52.710Z,9.10
2023-03-06T13:01:42.308Z,9.10
2023-03-06T13:04:28.745Z,9.20
2023-03-06T13:07:28.053Z,9.20
2023-03-06T13:10:10.732Z,9.20
2023-03-06T13:12:58.330Z,9.10
2023-03-06T13:15:35.364Z,9.10
2023-03-06T13:18:21.646Z,9.20
2023-03-06T13:20:50.182Z,9.20
2023-03-06T13:23:29.785Z,9.30
2023-03-06T13:26:08.385Z,9.30
2023-03-06T13:28:40.655Z,9.30
2023-03-06T13:31:18.224Z,9.30
2023-03-06T13:34:02.497Z,9.30
2023-03-06T13:36:30.012Z,9.30
2023-03-06T13:39:01.839Z,9.30
2023-03-06T13:41:35.656Z,9.40
2023-03-06T13:44:23.255Z,9.40
2023-03-06T13:47:05.046Z,9.60
2023-03-06T13:49:34.095Z,9.60
2023-03-06T13:52:23.138Z,9.60
2023-03-06T13:55:06.485Z,9.60
2023-03-06T13:57:53.299Z,9.70
2023-03-06T14:00:55.937Z,9.70
2023-03-06T14:03:44.597Z,9.80
2023-03-06T14:06:34.458Z,9.90
2023-03-06T14:09:04.789Z,9.90
2023-03-06T14:11:33.170Z,9.80
2023-03-06T14:14:01.138Z,9.80
2023-03-06T14:16:53.833Z,9.80
2023-03-06T14:19:22.687Z,9.80
2023-03-06T14:21:55.789Z,10.00
2023-03-06T14:24:34.341Z,10.00
2023-03-06T14:27:02.099Z,10.00
2023-03-06T14:29:30.484Z,10.10
2023-03-06T14:32:01.463Z,10.10
2023-03-06T14:34:32.951Z,10.00
2023-03-06T14:37:02.578Z,10.00
2023-03-06T14:39:36.940Z,9.90
2023-03-06T14:42:08.791Z,9.80
2023-03-06T14:44:36.821Z,9.80
2023-03-06T14:47:27.594Z,9.70
2023-03-06T14:50:30.204Z,9.70
2023-03-06T14:53:14.949Z,9.60
2023-03-06T14:55:50.325Z,9.40
2023-03-06T14:58:25.743Z,9.20
2023-03-06T15:00:55.186Z,8.80
2023-03-06T15:03:48.750Z,8.50
2023-03-06T15:06:29.703Z,8.30
2023-03-06T15:09:15.997Z,8.30
2023-03-06T15:11:59.324Z,8.20
2023-03-06T15:14:32.188Z,8.20
2023-03-06T15:17:18.621Z,8.30
2023-03-06T15:19:48.637Z,8.40
2023-03-06T15:22:34.241Z,8.50
2023-03-06T15:25:21.838Z,8.60
2023-03-06T15:27:52.006Z,8.70
2023-03-06T15:30:24.101Z,8.70
2023-03-06T15:32:52.315Z,8.70
2023-03-06T15:35:37.917Z,8.70
2023-03-06T15:38:45.707Z,8.70
2023-03-06T15:41:33.899Z,8.70
2023-03-06T15:44:08.581Z,8.80
2023-03-06T15:46:35.926Z,8.80
2023-03-06T15:49:03.742Z,8.80
2023-03-06T15:51:32.836Z,8.80
2023-03-06T15:54:11.269Z,8.90
2023-03-06T15:56:42.806Z,8.90
2023-03-06T15:59:21.648Z,9.00
2023-03-06T16:01:50.389Z,9.00
2023-03-06T16:04:19.849Z,9.00
2023-03-06T16:06:48.021Z,9.00
2023-03-06T16:09:15.554Z,9.00
2023-03-06T16:11:44.994Z,9.00
2023-03-06T16:14:24.227Z,9.00
2023-03-06T16:16:57.833Z,9.00
2023-03-06T16:19:27.603Z,8.80
2023-03-06T16:21:56.420Z,8.60
2023-03-06T16:24:26.151Z,8.40
2023-03-06T16:26:55.192Z,8.30
2023-03-06T16:29:26.036Z,8.20
2023-03-06T16:31:55.383Z,8.20
2023-03-06T16:34:23.639Z,8.00
2023-03-06T16:36:51.880Z,7.70
2023-03-06T16:39:21.707Z,7.60
2023-03-06T16:41:51.481Z,7.50
2023-03-06T16:44:20.114Z,7.40
2023-03-06T16:46:49.732Z,7.40
2023-03-06T16:49:25.429Z,7.40
2023-03-06T16:51:53.893Z,7.40
2023-03-06T16:54:24.289Z,7.30
2023-03-06T16:56:52.834Z,7.40
2023-03-06T16:59:20.359Z,7.40
2023-03-06T17:01:47.895Z,7.30
2023-03-06T17:04:15.631Z,7.40
2023-03-06T17:06:43.275Z,7.40
2023-03-06T17:09:11.108Z,7.40
2023-03-06T17:11:38.900Z,7.50
2023-03-06T17:14:07.072Z,7.50
2023-03-06T17:16:36.644Z,7.60
2023-03-06T17:19:04.223Z,7.60
2023-03-06T17:21:31.937Z,7.60
2023-03-06T17:24:04.085Z,7.70
2023-03-06T17:26:31.429Z,7.70
2023-03-06T17:28:58.943Z,7.70
2023-03-06T17:31:28.244Z,7.70
2023-03-06T17:34:00.446Z,7.80
2023-03-06T17:36:29.564Z,7.80
2023-03-06T17:39:04.643Z,7.80
2023-03-06T17:41:34.145Z,7.80
2023-03-06T17:44:01.926Z,7.80
2023-03-06T17:46:31.825Z,7.80
2023-03-06T17:48:59.529Z,7.90
2023-03-06T17:51:27.371Z,7.80
2023-03-06T17:53:55.695Z,7.80
2023-03-06T17:56:23.470Z,7.80
2023-03-06T17:58:50.974Z,7.80
2023-03-06T18:01:21.554Z,7.80
2023-03-06T18:03:51.883Z,7.70
2023-03-06T18:06:20.780Z,7.80
2023-03-06T18:08:51.548Z,7.40
2023-03-06T18:11:20.631Z,6.90
2023-03-06T18:13:48.837Z,6.70
2023-03-06T18:16:19.375Z,6.60
2023-03-06T18:18:47.115Z,6.60
2023-03-06T18:21:16.580Z,6.50
2023-03-06T18:23:44.546Z,6.70
2023-03-06T18:26:13.579Z,6.60
2023-03-06T18:28:44.570Z,6.60
2023-03-06T18:31:21.057Z,6.60
2023-03-06T18:33:49.486Z,6.50
2023-03-06T18:36:18.182Z,6.50
2023-03-06T18:38:48.092Z,6.50
2023-03-06T18:41:16.432Z,6.60
2023-03-06T18:43:43.920Z,6.60
2023-03-06T18:46:11.417Z,6.60
2023-03-06T18:48:38.834Z,6.60
2023-03-06T18:51:15.021Z,6.60
2023-03-06T18:53:42.904Z,6.70
2023-03-06T18:56:18.963Z,6.70
2023-03-06T18:58:47.127Z,6.70
2023-03-06T19:01:15.136Z,6.60
2023-03-06T19:03:42.707Z,6.50
2023-03-06T19:06:13.264Z,6.40
2023-03-06T19:08:41.143Z,6.40
2023-03-06T19:11:11.825Z,6.30
2023-03-06T19:13:39.600Z,6.40
2023-03-06T19:16:08.089Z,6.50
2023-03-06T19:18:35.696Z,6.40
2023-03-06T19:21:14.889Z,6.40
2023-03-06T19:23:42.992Z,6.30
2023-03-06T19:26:10.873Z,6.20
2023-03-06T19:28:40.084Z,6.20
2023-03-06T19:31:09.554Z,6.40
2023-03-06T19:33:37.958Z,6.50
2023-03-06T19:36:07.484Z,6.40
2023-03-06T19:38:36.582Z,6.40
2023-03-06T19:41:04.732Z,6.30
2023-03-06T19:43:32.365Z,6.20
2023-03-06T19:46:01.033Z,6.30
2023-03-06T19:48:28.377Z,6.20
2023-03-06T19:50:55.936Z,6.20
2023-03-06T19:53:23.519Z,6.20
2023-03-06T19:55:51.315Z,6.20
2023-03-06T19:58:18.842Z,6.30
2023-03-06T20:00:46.319Z,6.30
2023-03-06T20:03:13.953Z,6.30
2023-03-06T20:05:47.694Z,6.30
2023-03-06T20:08:15.101Z,6.30
2023-03-06T20:10:42.678Z,6.30
2023-03-06T20:13:10.271Z,6.40
2023-03-06T20:15:40.577Z,6.40
2023-03-06T20:18:08.476Z,6.30
2023-03-06T20:20:37.818Z,6.40
2023-03-06T20:23:05.668Z,6.40
2023-03-06T20:25:36.306Z,6.30
2023-03-06T20:28:07.578Z,6.30
2023-03-06T20:30:38.690Z,6.30
2023-03-06T20:33:06.670Z,6.30
2023-03-06T20:35:34.321Z,6.30
2023-03-06T20:38:01.988Z,6.30
2023-03-06T20:40:29.896Z,6.30
2023-03-06T20:42:59.644Z,6.40
2023-03-06T20:45:27.240Z,6.40
2023-03-06T20:47:56.366Z,6.40
2023-03-06T20:50:25.663Z,6.40
2023-03-06T20:52:58.417Z,6.40
2023-03-06T20:55:25.967Z,6.30
2023-03-06T20:57:53.419Z,6.40
2023-03-06T21:00:21.143Z,6.40
2023-03-06T21:02:50.151Z,6.40
2023-03-06T21:05:18.302Z,6.40
2023-03-06T21:07:45.729Z,6.40
2023-03-06T21:10:14.791Z,6.40
2023-03-06T21:12:42.620Z,6.40
2023-03-06T21:15:10.729Z,6.40
2023-03-06T21:17:39.050Z,6.40
2023-03-06T21:20:07.525Z,6.40
2023-03-06T21:22:34.930Z,6.40
2023-03-06T21:25:02.450Z,6.40
2023-03-06T21:27:30.180Z,6.40
2023-03-06T21:29:57.626Z,6.40
2023-03-06T21:32:25.164Z,6.50
2023-03-06T21:34:53.058Z,6.50
2023-03-06T21:37:20.465Z,6.50
2023-03-06T21:39:48.046Z,6.40
2023-03-06T21:42:18.418Z,6.50
2023-03-06T21:44:46.032Z,6.50
2023-03-06T21:47:13.539Z,6.50
2023-03-06T21:49:41.506Z,6.50
2023-03-06T21:52:09.227Z,6.40
2023-03-06T21:54:36.720Z,6.50
2023-03-06T21:57:04.424Z,6.50
2023-03-06T21:59:32.172Z,6.50
2023-03-06T22:01:59.716Z,6.50
2023-03-06T22:04:27.273Z,6.50
2023-03-06T22:06:54.581Z,6.50
2023-03-06T22:09:22.425Z,6.50
2023-03-06T22:11:50.425Z,6.50
2023-03-06T22:14:18.121Z,6.60
2023-03-06T22:16:45.579Z,6.60
2023-03-06T22:19:12.972Z,6.60
2023-03-06T22:21:40.528Z,6.60
2023-03-06T22:24:07.811Z,6.60
2023-03-06T22:26:35.220Z,6.60
2023-03-06T22:29:03.019Z,6.60
2023-03-06T22:31:30.826Z,6.60
2023-03-06T22:34:00.501Z,6.60
2023-03-06T22:36:30.828Z,6.70
2023-03-06T22:39:03.030Z,6.60
2023-03-06T22:41:31.462Z,6.60
2023-03-06T22:44:00.711Z,6.60
2023-03-06T22:46:28.337Z,6.60
2023-03-06T22:48:57.366Z,6.60
2023-03-06T22:51:26.153Z,6.60
2023-03-06T22:53:54.019Z,6.60
2023-03-06T22:56:22.601Z,6.60
2023-03-06T22:58:49.960Z,6.60
2023-03-06T23:01:20.018Z,6.60
2023-03-06T23:03:50.530Z,6.50
2023-03-06T23:06:20.644Z,6.50
2023-03-06T23:09:00.367Z,6.60
2023-03-06T23:11:29.567Z,6.50
2023-03-06T23:13:57.756Z,6.50
2023-03-06T23:16:25.673Z,6.50
2023-03-06T23:18:54.023Z,6.50
2023-03-06T23:21:23.083Z,6.50
2023-03-06T23:23:52.878Z,6.50
2023-03-06T23:26:23.961Z,6.50
2023-03-06T23:28:52.327Z,6.50
2023-03-06T23:31:23.776Z,6.50
2023-03-06T23:33:51.264Z,6.50
2023-03-06T23:36:19.122Z,6.50
2023-03-06T23:38:46.681Z,6.50
2023-03-06T23:41:16.547Z,6.40
2023-03-06T23:43:45.060Z,6.40
2023-03-06T23:46:12.859Z,6.50
2023-03-06T23:48:41.811Z,6.50
2023-03-06T23:51:21.770Z,6.50
2023-03-06T23:53:58.566Z,6.40
2023-03-06T23:56:28.244Z,6.50
2023-03-06T23:58:55.825Z,6.50
